createdAt,value
2023-02-06T00:01:28.186Z,103320.97
2023-02-06T00:03:54.829Z,103315.88
2023-02-06T00:06:21.288Z,103327.00
2023-02-06T00:08:48.932Z,103331.91
2023-02-06T00:11:19.417Z,103334.09
2023-02-06T00:13:45.935Z,103329.53
2023-02-06T00:16:17.572Z,103319.66
2023-02-06T00:18:44.469Z,103319.84
2023-02-06T00:21:11.205Z,103311.66
2023-02-06T00:23:37.721Z,103307.63
2023-02-06T00:26:05.450Z,103312.53
2023-02-06T00:28:31.934Z,103312.19
2023-02-06T00:30:58.426Z,103315.28
2023-02-06T00:33:24.945Z,103308.69
2023-02-06T00:35:51.424Z,103303.03
2023-02-06T00:38:17.981Z,103307.56
2023-02-06T00:40:44.640Z,103301.03
2023-02-06T00:43:11.119Z,103304.84
2023-02-06T00:45:37.706Z,103302.47
2023-02-06T00:48:04.263Z,103308.66
2023-02-06T00:50:30.769Z,103307.91
2023-02-06T00:52:57.264Z,103307.34
2023-02-06T00:55:23.753Z,103310.81
2023-02-06T00:57:50.249Z,103305.72
2023-02-06T01:00:16.887Z,103306.63
2023-02-06T01:02:43.561Z,103311.72
2023-02-06T01:05:10.356Z,103310.28
2023-02-06T01:07:39.357Z,103311.00
2023-02-06T01:10:08.222Z,103309.34
2023-02-06T01:12:36.178Z,103308.44
2023-02-06T01:15:05.498Z,103303.31
2023-02-06T01:17:33.163Z,103304.44
2023-02-06T01:19:59.895Z,103299.69
2023-02-06T01:22:26.425Z,103308.09
2023-02-06T01:24:52.897Z,103304.97
2023-02-06T01:27:19.379Z,103305.19
2023-02-06T01:29:45.847Z,103309.56
2023-02-06T01:32:12.339Z,103304.63
2023-02-06T01:34:38.884Z,103292.75
2023-02-06T01:37:05.336Z,103299.69
2023-02-06T01:39:33.123Z,103290.94
2023-02-06T01:41:59.587Z,103278.31
2023-02-06T01:44:26.416Z,103289.63
2023-02-06T01:46:55.852Z,103293.28
2023-02-06T01:49:37.277Z,103301.13
2023-02-06T01:52:21.582Z,103293.63
2023-02-06T01:55:00.685Z,103292.88
2023-02-06T01:57:27.611Z,103286.84
2023-02-06T01:59:59.403Z,103281.75
2023-02-06T02:02:27.481Z,103288.88
2023-02-06T02:04:55.522Z,103286.31
2023-02-06T02:07:25.480Z,103276.28
2023-02-06T02:09:52.360Z,103271.50
2023-02-06T02:12:19.094Z,103256.34
2023-02-06T02:14:47.075Z,103260.88
2023-02-06T02:17:19.645Z,103262.88
2023-02-06T02:20:16.519Z,103267.47
2023-02-06T02:23:03.719Z,103279.50
2023-02-06T02:25:57.366Z,103271.09
2023-02-06T02:28:50.839Z,103265.25
2023-02-06T02:31:53.807Z,103267.81
2023-02-06T02:34:54.816Z,103274.72
2023-02-06T02:37:27.350Z,103277.28
2023-02-06T02:40:08.106Z,103272.34
2023-02-06T02:42:46.997Z,103265.75
2023-02-06T02:45:21.549Z,103252.41
2023-02-06T02:47:58.973Z,103255.88
2023-02-06T02:50:25.869Z,103250.19
2023-02-06T02:52:52.793Z,103245.06
2023-02-06T02:55:22.326Z,103238.50
2023-02-06T02:57:52.353Z,103241.41
2023-02-06T03:00:20.048Z,103225.88
2023-02-06T03:02:48.400Z,103233.16
2023-02-06T03:05:18.505Z,103236.78
2023-02-06T03:08:10.718Z,103234.41
2023-02-06T03:11:02.990Z,103236.22
2023-02-06T03:13:37.925Z,103235.69
2023-02-06T03:16:29.473Z,103241.88
2023-02-06T03:19:04.159Z,103244.78
2023-02-06T03:21:32.916Z,103251.88
2023-02-06T03:24:01.998Z,103242.56
2023-02-06T03:26:29.469Z,103241.25
2023-02-06T03:29:01.152Z,103237.03
2023-02-06T03:31:38.797Z,103249.66
2023-02-06T03:34:15.804Z,103252.22
2023-02-06T03:36:42.384Z,103251.47
2023-02-06T03:39:08.874Z,103240.88
2023-02-06T03:41:37.630Z,103256.41
2023-02-06T03:44:06.877Z,103243.78
2023-02-06T03:46:34.373Z,103253.59
2023-02-06T03:49:03.765Z,103242.63
2023-02-06T03:51:36.878Z,103250.84
2023-02-06T03:54:04.462Z,103250.25
2023-02-06T03:57:01.226Z,103244.56
2023-02-06T03:59:27.890Z,103242.34
2023-02-06T04:01:59.842Z,103246.72
2023-02-06T04:04:30.328Z,103246.19
2023-02-06T04:06:59.015Z,103248.34
2023-02-06T04:09:25.491Z,103243.22
2023-02-06T04:11:52.182Z,103233.88
2023-02-06T04:14:18.655Z,103227.28
2023-02-06T04:16:45.174Z,103237.69
2023-02-06T04:19:11.661Z,103230.91
2023-02-06T04:21:38.277Z,103226.13
2023-02-06T04:24:04.926Z,103230.69
2023-02-06T04:26:31.424Z,103222.28
2023-02-06T04:28:58.073Z,103225.75
2023-02-06T04:31:24.620Z,103217.50
2023-02-06T04:33:51.283Z,103212.69
2023-02-06T04:36:17.778Z,103209.38
2023-02-06T04:38:44.316Z,103216.31
2023-02-06T04:41:10.810Z,103221.78
2023-02-06T04:43:37.257Z,103227.81
2023-02-06T04:46:03.827Z,103226.19
2023-02-06T04:48:30.356Z,103226.91
2023-02-06T04:50:56.827Z,103227.09
2023-02-06T04:53:23.307Z,103222.69
2023-02-06T04:55:49.803Z,103217.75
2023-02-06T04:58:16.273Z,103220.22
2023-02-06T05:00:42.762Z,103213.75
2023-02-06T05:03:09.262Z,103209.72
2023-02-06T05:05:35.977Z,103219.22
2023-02-06T05:08:02.583Z,103224.34
2023-02-06T05:10:29.126Z,103222.78
2023-02-06T05:12:56.167Z,103231.69
2023-02-06T05:15:22.898Z,103227.72
2023-02-06T05:17:49.368Z,103219.56
2023-02-06T05:20:16.009Z,103226.88
2023-02-06T05:22:42.505Z,103219.03
2023-02-06T05:25:08.970Z,103223.66
2023-02-06T05:27:35.643Z,103219.09
2023-02-06T05:30:02.334Z,103215.97
2023-02-06T05:32:28.842Z,103218.13
2023-02-06T05:34:55.321Z,103221.59
2023-02-06T05:37:21.796Z,103212.41
2023-02-06T05:39:48.267Z,103217.19
2023-02-06T05:42:14.693Z,103217.03
2023-02-06T05:44:41.192Z,103223.22
2023-02-06T05:47:07.675Z,103222.31
2023-02-06T05:49:34.139Z,103242.06
2023-02-06T05:52:00.879Z,103238.75
2023-02-06T05:54:27.409Z,103230.00
2023-02-06T05:56:53.889Z,103225.78
2023-02-06T05:59:20.470Z,103225.47
2023-02-06T06:01:47.008Z,103219.09
2023-02-06T06:04:13.604Z,103217.94
2023-02-06T06:06:40.166Z,103217.03
2023-02-06T06:09:06.661Z,103224.56
2023-02-06T06:11:33.592Z,103230.59
2023-02-06T06:14:00.170Z,103232.97
2023-02-06T06:16:26.691Z,103236.00
2023-02-06T06:18:53.424Z,103248.50
2023-02-06T06:21:19.983Z,103245.41
2023-02-06T06:23:46.444Z,103255.81
2023-02-06T06:26:13.006Z,103253.66
2023-02-06T06:28:40.208Z,103248.06
2023-02-06T06:31:11.931Z,103254.81
2023-02-06T06:33:39.435Z,103261.75
2023-02-06T06:36:08.090Z,103262.09
2023-02-06T06:38:34.674Z,103263.16
2023-02-06T06:41:01.335Z,103263.91
2023-02-06T06:43:27.846Z,103267.22
2023-02-06T06:45:54.376Z,103257.31
2023-02-06T06:48:20.909Z,103263.50
2023-02-06T06:50:50.340Z,103264.97
2023-02-06T06:53:16.819Z,103264.97
2023-02-06T06:55:43.333Z,103258.22
2023-02-06T06:58:09.857Z,103259.13
2023-02-06T07:00:38.187Z,103265.72
2023-02-06T07:03:05.648Z,103277.78
2023-02-06T07:05:32.361Z,103275.97
2023-02-06T07:07:58.813Z,103282.75
2023-02-06T07:10:26.068Z,103279.59
2023-02-06T07:12:53.691Z,103286.38
2023-02-06T07:15:20.658Z,103294.63
2023-02-06T07:17:47.141Z,103291.34
2023-02-06T07:20:13.745Z,103292.16
2023-02-06T07:22:40.442Z,103287.69
2023-02-06T07:25:07.027Z,103289.53
2023-02-06T07:27:33.582Z,103301.41
2023-02-06T07:30:00.125Z,103303.56
2023-02-06T07:32:26.934Z,103307.03
2023-02-06T07:34:53.498Z,103311.25
2023-02-06T07:37:20.026Z,103320.22
2023-02-06T07:39:46.510Z,103317.06
2023-02-06T07:42:13.559Z,103317.06
2023-02-06T07:44:40.072Z,103324.75
2023-02-06T07:47:09.386Z,103323.28
2023-02-06T07:49:35.975Z,103332.19
2023-02-06T07:52:02.463Z,103320.13
2023-02-06T07:54:29.089Z,103312.44
2023-02-06T07:56:55.622Z,103312.94
2023-02-06T07:59:22.397Z,103311.13
2023-02-06T08:01:48.949Z,103325.59
2023-02-06T08:04:15.913Z,103312.03
2023-02-06T08:06:43.370Z,103312.03
2023-02-06T08:09:14.744Z,103309.47
2023-02-06T08:11:41.233Z,103307.13
2023-02-06T08:14:08.032Z,103297.78
2023-02-06T08:16:34.626Z,103297.56
2023-02-06T08:19:01.138Z,103299.97
2023-02-06T08:21:27.663Z,103288.25
2023-02-06T08:23:59.391Z,103297.41
2023-02-06T08:26:28.047Z,103291.53
2023-02-06T08:28:56.427Z,103289.19
2023-02-06T08:31:25.442Z,103287.16
2023-02-06T08:33:52.154Z,103289.19
2023-02-06T08:36:19.999Z,103290.44
2023-02-06T08:38:46.784Z,103299.19
2023-02-06T08:41:24.788Z,103300.66
2023-02-06T08:43:55.310Z,103297.19
2023-02-06T08:46:23.505Z,103292.25
2023-02-06T08:49:01.750Z,103293.47
2023-02-06T08:51:28.597Z,103293.97
2023-02-06T08:53:59.669Z,103306.78
2023-02-06T08:56:27.380Z,103295.63
2023-02-06T08:58:54.273Z,103299.84
2023-02-06T09:01:21.175Z,103312.28
2023-02-06T09:03:48.195Z,103313.03
2023-02-06T09:06:15.199Z,103313.03
2023-02-06T09:08:42.347Z,103309.88
2023-02-06T09:11:12.846Z,103316.25
2023-02-06T09:13:39.619Z,103321.94
2023-02-06T09:16:06.625Z,103324.84
2023-02-06T09:18:33.630Z,103323.28
2023-02-06T09:21:11.110Z,103323.06
2023-02-06T09:23:43.822Z,103323.06
2023-02-06T09:26:11.227Z,103321.84
2023-02-06T09:28:37.748Z,103320.34
2023-02-06T09:31:04.607Z,103310.09
2023-02-06T09:33:31.160Z,103304.63
2023-02-06T09:36:09.571Z,103303.50
2023-02-06T09:38:38.422Z,103300.53
2023-02-06T09:41:10.885Z,103299.78
2023-02-06T09:43:37.687Z,103298.56
2023-02-06T09:46:06.331Z,103302.03
2023-02-06T09:48:35.650Z,103298.47
2023-02-06T09:51:14.825Z,103301.19
2023-02-06T09:53:49.967Z,103302.47
2023-02-06T09:56:33.048Z,103293.44
2023-02-06T09:59:10.900Z,103295.84
2023-02-06T10:01:45.652Z,103293.44
2023-02-06T10:04:24.477Z,103298.91
2023-02-06T10:06:56.229Z,103297.09
2023-02-06T10:09:33.871Z,103293.38
2023-02-06T10:12:55.850Z,103291.88
2023-02-06T10:15:45.465Z,103301.06
2023-02-06T10:18:22.320Z,103315.63
2023-02-06T10:20:59.499Z,103312.00
2023-02-06T10:23:37.624Z,103297.84
2023-02-06T10:26:08.398Z,103296.94
2023-02-06T10:28:35.432Z,103298.75
2023-02-06T10:31:20.897Z,103294.69
2023-02-06T10:34:15.463Z,103289.41
2023-02-06T10:36:57.381Z,103295.78
2023-02-06T10:39:45.557Z,103299.03
2023-02-06T10:42:36.448Z,103278.34
2023-02-06T10:45:19.298Z,103273.84
2023-02-06T10:48:03.032Z,103270.88
2023-02-06T10:50:56.798Z,103267.41
2023-02-06T10:53:29.196Z,103278.75
2023-02-06T10:56:05.846Z,103279.06
2023-02-06T10:58:43.263Z,103272.63
2023-02-06T11:01:25.116Z,103280.72
2023-02-06T11:04:04.214Z,103286.25
2023-02-06T11:06:30.818Z,103285.19
2023-02-06T11:08:57.554Z,103279.16
2023-02-06T11:11:33.458Z,103277.81
2023-02-06T11:14:06.306Z,103275.03
2023-02-06T11:16:35.428Z,103286.44
2023-02-06T11:19:15.753Z,103281.13
2023-02-06T11:21:42.285Z,103267.56
2023-02-06T11:24:13.029Z,103267.00
2023-02-06T11:26:41.475Z,103258.72
2023-02-06T11:29:15.012Z,103253.75
2023-02-06T11:31:44.469Z,103251.19
2023-02-06T11:34:33.234Z,103260.13
2023-02-06T11:37:01.564Z,103265.41
2023-02-06T11:39:34.132Z,103271.28
2023-02-06T11:42:06.990Z,103263.25
2023-02-06T11:44:43.297Z,103276.69
2023-02-06T11:47:28.707Z,103285.28
2023-02-06T11:49:56.454Z,103292.28
2023-02-06T11:52:32.359Z,103286.63
2023-02-06T11:55:02.780Z,103292.28
2023-02-06T11:57:31.409Z,103290.84
2023-02-06T12:00:18.916Z,103292.66
2023-02-06T12:02:53.528Z,103293.41
2023-02-06T12:05:21.094Z,103291.16
2023-02-06T12:07:56.007Z,103287.84
2023-02-06T12:10:24.235Z,103286.66
2023-02-06T12:12:56.922Z,103292.31
2023-02-06T12:15:45.456Z,103300.50
2023-02-06T12:18:15.762Z,103301.72
2023-02-06T12:20:52.206Z,103298.09
2023-02-06T12:23:24.598Z,103298.16
2023-02-06T12:25:54.786Z,103281.28
2023-02-06T12:28:26.613Z,103293.25
2023-02-06T12:31:04.814Z,103295.25
2023-02-06T12:33:40.441Z,103290.91
2023-02-06T12:36:20.665Z,103296.72
2023-02-06T12:38:54.429Z,103289.34
2023-02-06T12:41:43.944Z,103289.34
2023-02-06T12:44:10.333Z,103290.41
2023-02-06T12:46:36.859Z,103292.69
2023-02-06T12:49:11.694Z,103281.63
2023-02-06T12:51:47.292Z,103286.94
2023-02-06T12:54:17.972Z,103280.13
2023-02-06T12:56:48.610Z,103283.59
2023-02-06T12:59:34.547Z,103278.63
2023-02-06T13:02:22.388Z,103274.72
2023-02-06T13:04:49.447Z,103265.03
2023-02-06T13:07:18.019Z,103284.44
2023-02-06T13:09:50.430Z,103273.81
2023-02-06T13:12:25.753Z,103276.38
2023-02-06T13:15:03.568Z,103273.19
2023-02-06T13:17:37.036Z,103288.25
2023-02-06T13:20:18.143Z,103281.31
2023-02-06T13:22:49.299Z,103270.69
2023-02-06T13:25:24.854Z,103280.06
2023-02-06T13:27:52.565Z,103289.75
2023-02-06T13:30:31.548Z,103292.13
2023-02-06T13:33:14.042Z,103294.91
2023-02-06T13:35:56.974Z,103291.59
2023-02-06T13:38:23.441Z,103299.38
2023-02-06T13:41:14.721Z,103300.28
2023-02-06T13:43:54.336Z,103291.81
2023-02-06T13:46:36.269Z,103298.47
2023-02-06T13:49:08.683Z,103300.44
2023-02-06T13:51:45.459Z,103307.38
2023-02-06T13:54:30.634Z,103304.81
2023-02-06T13:57:20.584Z,103300.59
2023-02-06T13:59:51.451Z,103294.56
2023-02-06T14:02:37.363Z,103301.84
2023-02-06T14:05:06.742Z,103300.34
2023-02-06T14:07:45.234Z,103303.06
2023-02-06T14:10:55.076Z,103300.34
2023-02-06T14:13:39.897Z,103298.63
2023-02-06T14:16:23.620Z,103297.97
2023-02-06T14:19:05.129Z,103297.16
2023-02-06T14:21:59.348Z,103309.50
2023-02-06T14:24:54.145Z,103297.66
2023-02-06T14:28:00.058Z,103303.97
2023-02-06T14:30:53.487Z,103302.56
2023-02-06T14:33:44.890Z,103320.34
2023-02-06T14:36:39.244Z,103309.00
2023-02-06T14:39:40.710Z,103316.69
2023-02-06T14:42:13.437Z,103311.03
2023-02-06T14:44:42.077Z,103318.44
2023-02-06T14:47:17.309Z,103320.59
2023-02-06T14:49:45.740Z,103324.56
2023-02-06T14:52:24.465Z,103324.91
2023-02-06T14:54:50.930Z,103334.56
2023-02-06T14:57:25.946Z,103335.81
2023-02-06T15:00:04.669Z,103336.13
2023-02-06T15:02:33.770Z,103335.06
2023-02-06T15:05:02.175Z,103336.47
2023-02-06T15:07:31.912Z,103344.19
2023-02-06T15:10:11.361Z,103358.06
2023-02-06T15:12:38.380Z,103347.06
2023-02-06T15:15:20.270Z,103352.19
2023-02-06T15:18:07.791Z,103352.94
2023-02-06T15:20:40.362Z,103352.94
2023-02-06T15:23:17.984Z,103351.88
2023-02-06T15:25:59.022Z,103351.88
2023-02-06T15:28:29.381Z,103344.19
2023-02-06T15:30:57.087Z,103355.50
2023-02-06T15:33:27.906Z,103357.00
2023-02-06T15:35:56.446Z,103357.31
2023-02-06T15:38:24.378Z,103365.34
2023-02-06T15:40:55.032Z,103376.53
2023-02-06T15:43:25.358Z,103375.78
2023-02-06T15:45:55.708Z,103383.16
2023-02-06T15:48:35.516Z,103376.94
2023-02-06T15:51:15.525Z,103377.53
2023-02-06T15:53:43.509Z,103377.53
2023-02-06T15:56:29.681Z,103381.91
2023-02-06T15:58:58.826Z,103383.59
2023-02-06T16:01:26.426Z,103388.56
2023-02-06T16:03:58.345Z,103393.53
2023-02-06T16:06:24.784Z,103379.75
2023-02-06T16:08:59.519Z,103383.25
2023-02-06T16:11:46.568Z,103388.94
2023-02-06T16:14:20.207Z,103395.25
2023-02-06T16:16:59.925Z,103390.53
2023-02-06T16:19:39.046Z,103397.88
2023-02-06T16:22:39.900Z,103404.34
2023-02-06T16:25:25.868Z,103393.25
2023-02-06T16:27:53.019Z,103394.72
2023-02-06T16:30:26.147Z,103403.75
2023-02-06T16:32:54.674Z,103402.50
2023-02-06T16:35:22.040Z,103404.59
2023-02-06T16:37:49.170Z,103410.25
2023-02-06T16:40:16.717Z,103408.13
2023-02-06T16:42:46.544Z,103402.31
2023-02-06T16:45:22.285Z,103408.66
2023-02-06T16:47:48.865Z,103410.16
2023-02-06T16:50:16.582Z,103415.13
2023-02-06T16:52:49.058Z,103411.28
2023-02-06T16:55:18.439Z,103421.19
2023-02-06T16:57:46.028Z,103416.16
2023-02-06T17:00:23.678Z,103427.50
2023-02-06T17:02:51.977Z,103431.56
2023-02-06T17:05:19.929Z,103435.28
2023-02-06T17:07:48.938Z,103433.44
2023-02-06T17:10:16.417Z,103446.81
2023-02-06T17:12:45.119Z,103452.50
2023-02-06T17:15:16.292Z,103464.97
2023-02-06T17:17:42.996Z,103473.44
2023-02-06T17:20:29.473Z,103470.75
2023-02-06T17:22:56.021Z,103476.97
2023-02-06T17:25:22.482Z,103489.44
2023-02-06T17:27:48.947Z,103483.06
2023-02-06T17:30:20.390Z,103487.09
2023-02-06T17:32:47.079Z,103489.31
2023-02-06T17:35:13.671Z,103482.34
2023-02-06T17:37:40.186Z,103484.56
2023-02-06T17:40:07.267Z,103479.66
2023-02-06T17:42:33.785Z,103485.34
2023-02-06T17:45:00.182Z,103490.09
2023-02-06T17:47:26.746Z,103492.31
2023-02-06T17:49:53.169Z,103487.94
2023-02-06T17:52:19.591Z,103484.63
2023-02-06T17:54:46.088Z,103487.94
2023-02-06T17:57:13.658Z,103484.63
2023-02-06T17:59:40.111Z,103490.47
2023-02-06T18:02:06.682Z,103496.50
2023-02-06T18:04:33.112Z,103488.28
2023-02-06T18:06:59.568Z,103487.53
2023-02-06T18:09:26.013Z,103478.03
2023-02-06T18:11:52.420Z,103482.06
2023-02-06T18:14:18.876Z,103491.97
2023-02-06T18:16:46.116Z,103495.09
2023-02-06T18:19:12.703Z,103511.34
2023-02-06T18:21:39.113Z,103507.72
2023-02-06T18:24:05.932Z,103506.63
2023-02-06T18:26:32.692Z,103505.50
2023-02-06T18:28:59.153Z,103512.09
2023-02-06T18:31:27.955Z,103509.03
2023-02-06T18:33:55.327Z,103510.13
2023-02-06T18:36:23.018Z,103497.88
2023-02-06T18:38:49.476Z,103510.31
2023-02-06T18:41:39.528Z,103509.22
2023-02-06T18:44:08.382Z,103511.78
2023-02-06T18:46:34.993Z,103502.28
2023-02-06T18:49:01.519Z,103503.59
2023-02-06T18:51:29.360Z,103491.69
2023-02-06T18:53:57.199Z,103487.84
2023-02-06T18:56:23.616Z,103501.38
2023-02-06T18:58:50.034Z,103507.06
2023-02-06T19:01:20.784Z,103507.78
2023-02-06T19:03:48.197Z,103494.66
2023-02-06T19:06:19.671Z,103495.22
2023-02-06T19:08:46.843Z,103500.66
2023-02-06T19:11:13.428Z,103498.50
2023-02-06T19:13:40.616Z,103505.06
2023-02-06T19:16:13.328Z,103507.28
2023-02-06T19:18:42.182Z,103495.06
2023-02-06T19:21:11.497Z,103498.13
2023-02-06T19:23:39.339Z,103491.75
2023-02-06T19:26:09.656Z,103492.31
2023-02-06T19:28:41.120Z,103500.53
2023-02-06T19:31:08.917Z,103499.44
2023-02-06T19:33:37.881Z,103482.63
2023-02-06T19:36:08.719Z,103498.69
2023-02-06T19:38:35.361Z,103497.44
2023-02-06T19:41:06.764Z,103491.78
2023-02-06T19:43:33.905Z,103495.41
2023-02-06T19:46:09.415Z,103504.53
2023-02-06T19:48:35.878Z,103502.53
2023-02-06T19:51:07.476Z,103507.28
2023-02-06T19:53:34.533Z,103495.25
2023-02-06T19:56:05.064Z,103520.81
2023-02-06T19:58:32.019Z,103523.16
2023-02-06T20:00:59.129Z,103529.16
2023-02-06T20:03:25.755Z,103529.91
2023-02-06T20:05:52.240Z,103531.38
2023-02-06T20:08:18.688Z,103533.19
2023-02-06T20:10:45.178Z,103533.00
2023-02-06T20:13:11.670Z,103524.25
2023-02-06T20:15:38.938Z,103527.16
2023-02-06T20:18:06.491Z,103525.16
2023-02-06T20:20:34.621Z,103527.50
2023-02-06T20:23:01.615Z,103523.69
2023-02-06T20:25:28.143Z,103522.75
2023-02-06T20:27:54.677Z,103519.84
2023-02-06T20:30:22.706Z,103525.31
2023-02-06T20:32:49.248Z,103531.16
2023-02-06T20:35:15.682Z,103536.59
2023-02-06T20:37:42.153Z,103540.25
2023-02-06T20:40:09.098Z,103532.59
2023-02-06T20:42:39.428Z,103534.78
2023-02-06T20:45:06.154Z,103540.63
2023-02-06T20:47:32.568Z,103542.03
2023-02-06T20:50:00.461Z,103539.47
2023-02-06T20:52:27.042Z,103544.22
2023-02-06T20:54:53.480Z,103544.94
2023-02-06T20:57:22.259Z,103558.44
2023-02-06T20:59:49.112Z,103559.72
2023-02-06T21:02:15.544Z,103549.31
2023-02-06T21:04:42.971Z,103557.00
2023-02-06T21:07:09.448Z,103544.94
2023-02-06T21:09:36.539Z,103548.94
2023-02-06T21:12:03.004Z,103556.22
2023-02-06T21:14:30.042Z,103561.69
2023-02-06T21:16:57.198Z,103561.50
2023-02-06T21:19:24.936Z,103562.03
2023-02-06T21:21:51.345Z,103571.84
2023-02-06T21:24:17.974Z,103567.47
2023-02-06T21:26:44.411Z,103575.66
2023-02-06T21:29:12.758Z,103569.47
2023-02-06T21:31:39.344Z,103572.94
2023-02-06T21:34:09.594Z,103572.94
2023-02-06T21:36:37.908Z,103571.81
2023-02-06T21:39:04.813Z,103573.09
2023-02-06T21:41:31.305Z,103582.38
2023-02-06T21:43:57.953Z,103578.00
2023-02-06T21:46:24.538Z,103578.69
2023-02-06T21:48:52.925Z,103575.78
2023-02-06T21:51:20.337Z,103580.50
2023-02-06T21:53:46.795Z,103588.16
2023-02-06T21:56:18.938Z,103592.16
2023-02-06T21:58:46.130Z,103590.34
2023-02-06T22:01:29.800Z,103595.97
2023-02-06T22:03:57.065Z,103596.47
2023-02-06T22:06:23.648Z,103598.84
2023-02-06T22:08:52.152Z,103595.38
2023-02-06T22:11:24.556Z,103602.84
2023-02-06T22:13:51.971Z,103602.28
2023-02-06T22:16:21.238Z,103601.91
2023-02-06T22:18:47.757Z,103592.94
2023-02-06T22:21:20.134Z,103599.28
2023-02-06T22:23:49.766Z,103604.94
2023-02-06T22:26:17.653Z,103600.38
2023-02-06T22:28:44.627Z,103620.16
2023-02-06T22:31:14.339Z,103616.13
2023-02-06T22:33:41.066Z,103618.50
2023-02-06T22:36:12.562Z,103623.03
2023-02-06T22:38:39.805Z,103615.69
2023-02-06T22:41:08.447Z,103613.47
2023-02-06T22:43:36.871Z,103619.63
2023-02-06T22:46:03.959Z,103625.22
2023-02-06T22:48:30.489Z,103625.38
2023-02-06T22:50:57.255Z,103620.78
2023-02-06T22:53:30.216Z,103620.78
2023-02-06T22:56:16.284Z,103608.78
2023-02-06T22:58:42.853Z,103603.97
2023-02-06T23:01:09.505Z,103604.88
2023-02-06T23:03:36.002Z,103613.59
2023-02-06T23:06:03.889Z,103628.31
2023-02-06T23:08:30.649Z,103631.16
2023-02-06T23:10:57.417Z,103629.66
2023-02-06T23:13:23.865Z,103632.94
2023-02-06T23:15:50.372Z,103626.19
2023-02-06T23:18:16.914Z,103638.75
2023-02-06T23:20:43.533Z,103643.84
2023-02-06T23:23:09.995Z,103642.00
2023-02-06T23:25:42.707Z,103645.09
2023-02-06T23:28:09.200Z,103638.47
2023-02-06T23:30:35.687Z,103633.16
2023-02-06T23:33:02.211Z,103637.34
2023-02-06T23:35:28.674Z,103649.88
2023-02-06T23:37:55.152Z,103653.88
2023-02-06T23:40:21.626Z,103642.56
2023-02-06T23:42:48.211Z,103652.06
2023-02-06T23:45:14.704Z,103640.22
2023-02-06T23:47:42.614Z,103645.66
2023-02-06T23:50:09.517Z,103651.22
2023-02-06T23:52:36.020Z,103647.56
2023-02-06T23:55:02.449Z,103645.94
2023-02-06T23:57:28.991Z,103652.88
2023-02-06T23:59:55.453Z,103651.94
